Time;durP1;ratioP1;P1;durP2;ratioP2;P2;SDS_P1;SDS_P2;PMS_P1;PMS_P2;Temp;Humidity;BMP_temperature;BMP_pressure;BME280_temperature;BME280_humidity;BME280_pressure;Samples;Min_cycle;Max_cycle;Signal;HPM_P1;HPM_P2
2023/04/03 00:01:38;;;;;;;65.00;6.10;;;5.20;91.20;;;;;;5022026;28;20208;-82
2023/04/03 00:04:05;;;;;;;72.60;6.73;;;5.20;93.40;;;;;;5021570;28;20181;-82
2023/04/03 00:06:32;;;;;;;65.13;5.50;;;5.20;90.90;;;;;;5020030;28;20196;-82
2023/04/03 00:08:58;;;;;;;66.65;5.75;;;5.30;86.00;;;;;;5021392;28;20221;-82
2023/04/03 00:11:23;;;;;;;70.40;5.90;;;5.30;79.50;;;;;;5021440;28;20188;-82
2023/04/03 00:13:49;;;;;;;66.40;6.00;;;5.30;81.20;;;;;;5020581;28;20868;-82
2023/04/03 00:16:15;;;;;;;65.63;6.45;;;5.30;88.90;;;;;;5021314;28;20162;-82
2023/04/03 00:18:41;;;;;;;68.20;6.50;;;5.30;91.10;;;;;;5019756;28;20174;-82
2023/04/03 00:21:08;;;;;;;65.22;5.65;;;5.30;86.10;;;;;;5020452;28;20197;-82
2023/04/03 00:23:34;;;;;;;69.75;6.60;;;5.20;81.20;;;;;;5019875;28;20185;-82
2023/04/03 00:26:00;;;;;;;65.95;5.93;;;5.20;88.20;;;;;;5019153;28;20190;-82
2023/04/03 00:28:26;;;;;;;69.70;6.27;;;5.20;90.70;;;;;;5021287;28;20503;-82
2023/04/03 00:30:52;;;;;;;67.10;6.80;;;5.10;95.30;;;;;;5019675;28;20166;-82
2023/04/03 00:33:21;;;;;;;68.47;8.50;;;5.10;98.90;;;;;;5019241;28;20196;-82
2023/04/03 00:35:47;;;;;;;65.32;7.00;;;5.10;99.90;;;;;;5020263;28;20408;-82
2023/04/03 00:38:14;;;;;;;65.47;8.52;;;5.10;94.10;;;;;;5021222;28;20169;-82
2023/04/03 00:40:44;;;;;;;72.13;10.52;;;5.00;97.40;;;;;;5019948;28;20256;-82
2023/04/03 00:43:14;;;;;;;70.03;10.35;;;4.90;99.90;;;;;;5020262;28;20213;-82
2023/04/03 00:45:42;;;;;;;67.50;10.45;;;4.90;99.90;;;;;;5019984;28;20185;-82
2023/04/03 00:48:15;;;;;;;69.13;10.02;;;4.90;99.90;;;;;;5023104;28;20175;-82
2023/04/03 00:50:43;;;;;;;67.28;10.68;;;4.80;99.90;;;;;;5023968;28;20161;-82
2023/04/03 00:53:12;;;;;;;69.43;11.55;;;4.80;99.90;;;;;;5026992;28;20189;-82
2023/04/03 00:55:39;;;;;;;68.22;12.80;;;4.80;99.90;;;;;;5026169;28;20196;-82
2023/04/03 00:58:07;;;;;;;67.53;9.00;;;4.80;99.90;;;;;;5026610;28;20181;-82
2023/04/03 01:00:33;;;;;;;68.68;10.82;;;4.80;99.90;;;;;;5026307;28;20170;-82
2023/04/03 01:03:00;;;;;;;67.55;9.07;;;4.80;99.90;;;;;;5028832;28;20189;-82
2023/04/03 01:05:26;;;;;;;66.63;8.45;;;4.70;99.90;;;;;;5026040;28;20185;-82
2023/04/03 01:07:53;;;;;;;66.90;7.20;;;4.70;99.90;;;;;;5026714;28;20219;-82
2023/04/03 01:10:20;;;;;;;67.40;9.55;;;4.70;99.90;;;;;;5028189;28;20400;-82
2023/04/03 01:12:49;;;;;;;69.05;9.45;;;4.60;99.90;;;;;;5026499;28;20212;-82
2023/04/03 01:15:20;;;;;;;66.75;9.20;;;4.60;99.90;;;;;;5026400;28;20170;-82
2023/04/03 01:17:52;;;;;;;66.68;7.50;;;4.60;94.80;;;;;;5026898;28;20173;-82
2023/04/03 01:20:20;;;;;;;68.35;6.95;;;4.50;83.30;;;;;;5027569;28;20652;-82
2023/04/03 01:22:58;;;;;;;66.38;5.47;;;4.60;81.90;;;;;;5027595;28;20190;-82
2023/04/03 01:25:24;;;;;;;68.20;5.45;;;4.60;70.00;;;;;;5027630;28;20716;-82
2023/04/03 01:27:50;;;;;;;65.27;5.67;;;4.60;61.10;;;;;;5028146;28;20201;-83
2023/04/03 01:30:19;;;;;;;67.28;6.53;;;4.50;51.90;;;;;;5027700;28;20441;-82
2023/04/03 01:32:46;;;;;;;68.63;7.32;;;4.60;53.70;;;;;;5027465;28;20181;-82
2023/04/03 01:35:11;;;;;;;65.68;6.25;;;4.70;57.10;;;;;;5027805;28;20166;-82
2023/04/03 01:37:37;;;;;;;67.60;6.97;;;4.60;64.40;;;;;;5024902;28;20166;-82
2023/04/03 01:40:06;;;;;;;67.57;6.60;;;4.60;54.30;;;;;;5024483;28;20166;-82
2023/04/03 01:42:32;;;;;;;67.60;7.15;;;4.60;52.00;;;;;;5027651;28;20161;-82
2023/04/03 01:44:58;;;;;;;65.40;6.60;;;4.50;65.10;;;;;;5027096;28;20195;-82
2023/04/03 01:47:23;;;;;;;67.40;6.13;;;4.30;80.80;;;;;;5027233;28;20166;-82
2023/04/03 01:49:49;;;;;;;66.07;6.70;;;4.30;88.80;;;;;;5026429;28;20189;-82
2023/04/03 01:52:15;;;;;;;67.70;7.80;;;4.10;91.00;;;;;;5027198;28;20229;-82
2023/04/03 01:54:41;;;;;;;69.80;10.23;;;4.00;94.50;;;;;;5025211;28;20939;-82
2023/04/03 01:57:06;;;;;;;67.97;10.43;;;3.90;97.70;;;;;;5027470;28;20165;-82
2023/04/03 01:59:32;;;;;;;66.90;10.53;;;3.70;99.70;;;;;;5024820;28;20659;-82
2023/04/03 02:01:58;;;;;;;67.77;10.60;;;3.70;99.90;;;;;;5023806;28;20177;-82
2023/04/03 02:04:23;;;;;;;68.80;13.33;;;3.70;99.90;;;;;;5024289;28;20257;-82
2023/04/03 02:06:49;;;;;;;70.10;13.70;;;3.60;99.90;;;;;;5022526;28;20188;-82
2023/04/03 02:09:15;;;;;;;67.07;12.00;;;3.50;99.90;;;;;;5022806;28;20174;-82
2023/04/03 02:11:40;;;;;;;69.73;13.20;;;3.40;99.90;;;;;;5021085;28;20173;-82
2023/04/03 02:14:06;;;;;;;69.87;14.83;;;3.30;99.90;;;;;;5023596;28;20193;-82
2023/04/03 02:16:32;;;;;;;69.33;14.13;;;3.20;99.90;;;;;;5022280;28;20170;-82
2023/04/03 02:18:58;;;;;;;71.50;15.40;;;3.10;99.90;;;;;;5023966;28;20494;-82
2023/04/03 02:21:24;;;;;;;73.45;15.13;;;3.10;99.90;;;;;;5022753;28;20596;-82
2023/04/03 02:23:49;;;;;;;71.93;18.30;;;3.00;99.90;;;;;;5023713;28;20239;-82
2023/04/03 02:26:16;;;;;;;70.77;16.97;;;2.90;99.90;;;;;;5022302;28;20194;-82
2023/04/03 02:28:42;;;;;;;74.25;15.35;;;2.80;99.90;;;;;;5021978;28;20242;-82
2023/04/03 02:31:09;;;;;;;72.55;17.00;;;2.80;99.90;;;;;;5022411;28;20182;-82
2023/04/03 02:33:36;;;;;;;72.82;13.38;;;2.80;99.90;;;;;;5022158;28;20390;-82
2023/04/03 02:36:04;;;;;;;69.90;15.18;;;2.80;99.90;;;;;;5023179;28;20165;-82
2023/04/03 02:38:30;;;;;;;73.72;16.92;;;2.80;99.90;;;;;;5023259;28;20176;-82
2023/04/03 02:41:07;;;;;;;73.47;17.20;;;2.70;99.90;;;;;;5022227;28;20249;-82
2023/04/03 02:43:33;;;;;;;70.88;14.20;;;2.70;99.90;;;;;;5023168;28;20185;-82
2023/04/03 02:45:59;;;;;;;74.15;16.25;;;2.80;99.90;;;;;;5021781;28;20680;-82
2023/04/03 02:48:25;;;;;;;74.80;15.47;;;2.70;99.90;;;;;;5023186;28;20162;-82
2023/04/03 02:50:51;;;;;;;73.72;18.05;;;2.60;99.90;;;;;;5023195;28;20165;-82
2023/04/03 02:53:16;;;;;;;70.07;14.13;;;2.60;99.90;;;;;;5022662;28;20174;-82
2023/04/03 02:55:42;;;;;;;73.40;17.00;;;2.60;99.90;;;;;;5021643;28;20261;-82
2023/04/03 02:58:08;;;;;;;73.10;15.97;;;2.60;99.90;;;;;;5023031;28;20443;-82
2023/04/03 03:00:34;;;;;;;70.50;15.93;;;2.50;99.90;;;;;;5021063;28;20581;-82
2023/04/03 03:03:00;;;;;;;73.80;15.63;;;2.40;99.90;;;;;;5021511;28;20196;-82
2023/04/03 03:05:27;;;;;;;71.33;15.37;;;2.40;99.90;;;;;;5020770;28;20664;-82
2023/04/03 03:07:53;;;;;;;73.05;16.65;;;2.30;99.90;;;;;;5021329;28;20413;-82
2023/04/03 03:10:18;;;;;;;76.65;16.55;;;2.20;99.90;;;;;;5021285;28;20158;-82
2023/04/03 03:12:44;;;;;;;71.77;16.47;;;2.20;99.90;;;;;;5020988;28;20522;-82
2023/04/03 03:15:10;;;;;;;73.20;15.83;;;2.20;99.90;;;;;;5021350;28;20528;-82
2023/04/03 03:17:36;;;;;;;71.70;16.02;;;2.10;99.90;;;;;;5022130;28;20166;-82
2023/04/03 03:20:03;;;;;;;70.37;13.50;;;2.10;99.90;;;;;;5021776;28;20249;-82
2023/04/03 03:22:29;;;;;;;71.45;15.65;;;2.00;99.90;;;;;;5019440;28;20181;-82
2023/04/03 03:24:55;;;;;;;73.05;16.23;;;2.10;99.90;;;;;;5020855;28;20538;-82
2023/04/03 03:27:21;;;;;;;72.47;13.20;;;2.00;99.90;;;;;;5021819;28;20196;-82
2023/04/03 03:29:47;;;;;;;72.00;15.30;;;2.00;99.90;;;;;;5021849;28;20158;-82
2023/04/03 03:32:13;;;;;;;71.15;13.48;;;2.00;99.90;;;;;;5021847;28;20166;-82
2023/04/03 03:34:38;;;;;;;71.80;14.23;;;2.00;99.90;;;;;;5019693;28;20577;-82
2023/04/03 03:37:04;;;;;;;74.70;15.63;;;2.00;99.90;;;;;;5019953;28;20170;-82
2023/04/03 03:39:30;;;;;;;72.00;15.43;;;2.00;99.90;;;;;;5019299;28;20169;-82
2023/04/03 03:41:55;;;;;;;71.63;15.63;;;1.90;99.90;;;;;;5017932;28;20417;-82
2023/04/03 03:44:21;;;;;;;69.87;13.33;;;1.90;99.90;;;;;;5019325;28;20190;-82
2023/04/03 03:46:47;;;;;;;72.13;15.30;;;1.90;99.90;;;;;;5021351;28;20181;-82
2023/04/03 03:49:12;;;;;;;75.57;14.20;;;1.90;99.90;;;;;;5021830;28;20158;-82
2023/04/03 03:51:39;;;;;;;73.03;14.97;;;1.80;99.90;;;;;;5019077;28;20346;-82
2023/04/03 03:54:05;;;;;;;75.28;16.67;;;1.80;99.90;;;;;;5021753;28;20193;-82
2023/04/03 03:56:31;;;;;;;72.70;14.57;;;1.70;99.90;;;;;;5020948;28;20162;-82
2023/04/03 03:58:57;;;;;;;72.60;15.02;;;1.80;99.90;;;;;;5020520;28;20425;-82
2023/04/03 04:01:23;;;;;;;72.23;15.77;;;1.80;99.90;;;;;;5021130;28;20196;-82
2023/04/03 04:03:49;;;;;;;70.85;13.70;;;1.70;99.90;;;;;;5021178;28;20745;-82
2023/04/03 04:06:15;;;;;;;73.70;14.77;;;1.80;99.90;;;;;;5019141;28;20217;-82
2023/04/03 04:08:40;;;;;;;72.90;15.60;;;1.70;99.90;;;;;;5018920;28;20163;-82
2023/04/03 04:11:09;;;;;;;72.40;14.87;;;1.80;99.90;;;;;;5021655;28;20409;-82
2023/04/03 04:13:34;;;;;;;71.57;13.40;;;1.90;99.90;;;;;;5019369;28;20192;-82
2023/04/03 04:16:00;;;;;;;78.20;14.40;;;1.90;99.90;;;;;;5019934;28;20248;-82
2023/04/03 04:18:26;;;;;;;72.87;15.13;;;1.90;99.90;;;;;;5021314;28;20530;-82
2023/04/03 04:20:52;;;;;;;75.73;15.80;;;1.90;99.90;;;;;;5017664;28;20409;-82
2023/04/03 04:23:18;;;;;;;70.27;14.90;;;1.80;99.90;;;;;;5021063;28;20209;-82
2023/04/03 04:25:45;;;;;;;71.88;15.75;;;1.70;99.90;;;;;;5020912;28;20193;-82
2023/04/03 04:28:12;;;;;;;74.82;17.50;;;1.70;99.90;;;;;;5020661;28;20166;-82
2023/04/03 04:30:38;;;;;;;71.75;13.40;;;1.60;99.90;;;;;;5021032;28;20308;-82
2023/04/03 04:33:03;;;;;;;72.07;13.40;;;1.60;99.90;;;;;;5021001;28;20225;-82
2023/04/03 04:35:29;;;;;;;75.47;14.97;;;1.60;99.90;;;;;;5018633;28;20405;-82
2023/04/03 04:37:55;;;;;;;73.20;14.57;;;1.70;99.90;;;;;;5018900;28;20723;-82
2023/04/03 04:40:20;;;;;;;73.20;15.50;;;1.60;99.90;;;;;;5018883;28;20166;-82
2023/04/03 04:42:47;;;;;;;76.60;13.90;;;1.60;99.90;;;;;;5021030;28;20182;-82
2023/04/03 04:45:12;;;;;;;71.05;13.68;;;1.70;99.90;;;;;;5017961;28;20244;-82
2023/04/03 04:47:38;;;;;;;72.00;14.37;;;1.80;99.90;;;;;;5020139;28;20633;-82
2023/04/03 04:50:04;;;;;;;73.17;13.87;;;1.70;99.90;;;;;;5021325;28;20665;-82
2023/04/03 04:52:30;;;;;;;72.82;13.25;;;1.70;99.90;;;;;;5020705;28;20158;-82
2023/04/03 04:54:56;;;;;;;70.97;14.10;;;1.60;99.90;;;;;;5020856;28;20166;-82
2023/04/03 04:57:21;;;;;;;73.50;14.10;;;1.60;99.90;;;;;;5020697;28;20162;-81
2023/04/03 04:59:47;;;;;;;72.47;13.23;;;1.60;99.90;;;;;;5021081;28;20150;-82
2023/04/03 05:02:13;;;;;;;72.57;13.43;;;1.50;99.90;;;;;;5019161;28;20199;-82
2023/04/03 05:04:38;;;;;;;71.43;12.67;;;1.60;99.90;;;;;;5018163;28;20222;-82
2023/04/03 05:07:04;;;;;;;74.57;14.97;;;1.70;99.90;;;;;;5017985;28;20169;-82
2023/04/03 05:09:30;;;;;;;72.50;13.30;;;1.70;99.90;;;;;;5020889;28;20165;-82
2023/04/03 05:11:56;;;;;;;71.90;13.00;;;1.70;99.90;;;;;;5021256;28;20158;-82
2023/04/03 05:14:22;;;;;;;72.13;12.40;;;1.80;99.90;;;;;;5019091;28;20196;-82
2023/04/03 05:16:47;;;;;;;72.77;12.63;;;1.70;99.90;;;;;;5020678;28;20163;-82
2023/04/03 05:19:13;;;;;;;70.50;12.73;;;1.70;99.90;;;;;;5020611;28;20892;-82
2023/04/03 05:21:39;;;;;;;70.35;12.55;;;1.70;99.90;;;;;;5020799;28;20168;-82
2023/04/03 05:24:08;;;;;;;72.83;13.47;;;1.60;99.90;;;;;;5018637;28;20271;-82
2023/04/03 05:26:35;;;;;;;71.90;13.73;;;1.70;99.90;;;;;;5019272;28;20565;-82
2023/04/03 05:29:01;;;;;;;71.65;13.35;;;1.70;99.90;;;;;;5019585;28;20580;-82
2023/04/03 05:31:29;;;;;;;73.47;12.65;;;1.70;99.90;;;;;;5020108;28;20166;-82
2023/04/03 05:33:55;;;;;;;69.63;12.07;;;1.60;99.90;;;;;;5019614;28;20248;-81
2023/04/03 05:36:21;;;;;;;70.47;13.30;;;1.80;99.90;;;;;;5024047;28;20649;-82
2023/04/03 05:38:47;;;;;;;72.63;12.32;;;1.80;99.90;;;;;;5023364;28;20241;-81
2023/04/03 05:41:13;;;;;;;70.47;12.25;;;1.80;99.90;;;;;;5022109;28;20189;-81
2023/04/03 05:43:42;;;;;;;74.95;14.05;;;1.80;99.90;;;;;;5020231;28;20239;-81
2023/04/03 05:46:17;;;;;;;75.63;12.40;;;1.70;99.90;;;;;;5021691;28;20668;-81
2023/04/03 05:48:43;;;;;;;74.80;13.18;;;1.70;99.90;;;;;;5021946;28;20162;-81
2023/04/03 05:51:18;;;;;;;75.22;12.95;;;1.80;99.90;;;;;;5021527;28;20178;-81
2023/04/03 05:53:45;;;;;;;72.82;11.90;;;1.90;99.90;;;;;;5021571;28;20213;-81
2023/04/03 05:56:11;;;;;;;73.25;13.38;;;1.90;99.90;;;;;;5021273;28;20165;-81
2023/04/03 05:58:37;;;;;;;71.82;12.43;;;2.00;99.90;;;;;;5090390;23;20350;-81
2023/04/03 06:01:03;;;;;;;71.53;12.00;;;2.00;99.90;;;;;;5020092;28;20586;-81
2023/04/03 06:03:28;;;;;;;73.43;13.13;;;2.00;99.90;;;;;;5020438;28;20189;-81
2023/04/03 06:05:54;;;;;;;71.37;13.30;;;2.00;99.90;;;;;;5019807;28;20920;-81
2023/04/03 06:08:20;;;;;;;73.40;13.37;;;2.10;99.90;;;;;;5019462;28;20150;-81
2023/04/03 06:10:46;;;;;;;70.47;11.67;;;2.20;99.90;;;;;;5019609;28;20385;-81
2023/04/03 06:13:12;;;;;;;72.05;12.93;;;2.20;99.90;;;;;;5019169;28;20428;-81
2023/04/03 06:15:39;;;;;;;68.70;10.93;;;2.20;99.90;;;;;;5019658;28;20169;-81
2023/04/03 06:18:05;;;;;;;71.30;12.70;;;2.40;99.90;;;;;;5019090;28;20564;-81
2023/04/03 06:20:31;;;;;;;71.53;12.40;;;2.50;99.90;;;;;;5017952;28;20213;-81
2023/04/03 06:22:56;;;;;;;69.07;11.50;;;2.50;99.90;;;;;;5018871;28;20192;-80
2023/04/03 06:25:22;;;;;;;72.83;11.20;;;2.60;99.90;;;;;;5017486;28;20272;-80
2023/04/03 06:27:48;;;;;;;69.20;10.50;;;2.60;99.90;;;;;;5018809;28;20412;-80
2023/04/03 06:30:14;;;;;;;71.30;9.80;;;2.70;99.90;;;;;;5017194;28;20412;-80
2023/04/03 06:32:40;;;;;;;69.63;9.90;;;2.70;99.90;;;;;;5018716;28;20193;-80
2023/04/03 06:35:06;;;;;;;72.13;8.70;;;2.80;99.90;;;;;;5018039;28;20174;-80
2023/04/03 06:37:32;;;;;;;70.10;10.20;;;2.90;99.90;;;;;;5018995;28;20815;-81
2023/04/03 06:40:00;;;;;;;74.07;11.73;;;3.00;99.90;;;;;;5019025;28;20252;-81
2023/04/03 06:42:25;;;;;;;72.63;11.43;;;3.10;93.20;;;;;;5018151;28;20441;-81
2023/04/03 06:44:51;;;;;;;73.60;9.27;;;3.30;93.90;;;;;;5018799;28;20193;-81
2023/04/03 06:47:28;;;;;;;66.10;9.00;;;3.40;79.50;;;;;;5017786;28;20413;-81
2023/04/03 06:49:53;;;;;;;69.28;7.30;;;3.50;66.90;;;;;;5019218;28;20400;-81
2023/04/03 06:52:19;;;;;;;71.03;7.97;;;3.50;59.20;;;;;;5018843;28;20529;-81
2023/04/03 06:54:45;;;;;;;67.30;8.33;;;3.50;59.10;;;;;;5018756;28;20177;-81
2023/04/03 06:57:11;;;;;;;67.93;8.00;;;3.60;47.10;;;;;;5018122;28;20170;-81
2023/04/03 06:59:36;;;;;;;68.30;8.43;;;3.60;52.90;;;;;;5019048;28;20680;-81
2023/04/03 07:02:05;;;;;;;68.97;7.77;;;3.70;43.70;;;;;;5018798;28;20261;-81
2023/04/03 07:04:31;;;;;;;65.97;6.75;;;3.70;44.40;;;;;;5018771;28;20770;-81
2023/04/03 07:06:57;;;;;;;66.43;5.90;;;3.80;43.70;;;;;;5018604;28;20169;-81
2023/04/03 07:09:29;;;;;;;71.83;6.60;;;3.90;39.20;;;;;;5019900;28;20170;-81
2023/04/03 07:11:54;;;;;;;66.80;6.75;;;3.90;32.80;;;;;;5018621;28;20166;-81
2023/04/03 07:14:23;;;;;;;69.20;5.67;;;4.00;37.20;;;;;;5019284;28;20182;-81
2023/04/03 07:16:48;;;;;;;65.40;5.32;;;4.10;33.10;;;;;;5018313;28;20193;-81
2023/04/03 07:19:14;;;;;;;68.10;5.13;;;4.10;25.80;;;;;;5018648;28;20637;-81
2023/04/03 07:21:43;;;;;;;68.87;6.00;;;4.20;27.50;;;;;;5017286;28;20185;-81
2023/04/03 07:24:08;;;;;;;66.95;6.28;;;4.30;22.40;;;;;;5018454;28;20196;-81
2023/04/03 07:26:35;;;;;;;67.00;5.87;;;4.40;26.70;;;;;;5018581;28;20221;-81
2023/04/03 07:29:01;;;;;;;67.47;6.60;;;4.40;18.40;;;;;;5019262;28;20518;-81
2023/04/03 07:31:27;;;;;;;68.10;5.60;;;4.40;13.60;;;;;;5017846;28;20167;-81
2023/04/03 07:33:52;;;;;;;68.10;4.72;;;4.50;11.90;;;;;;5017598;28;20427;-81
2023/04/03 07:36:20;;;;;;;65.20;4.57;;;4.50;14.20;;;;;;5018597;28;20166;-81
2023/04/03 07:38:46;;;;;;;69.22;5.25;;;4.60;17.70;;;;;;5018123;28;20162;-81
2023/04/03 07:41:18;;;;;;;66.30;5.17;;;4.60;9.30;;;;;;5016911;28;20192;-81
2023/04/03 07:43:44;;;;;;;65.38;4.55;;;4.70;7.20;;;;;;5016972;28;20189;-81
2023/04/03 07:46:11;;;;;;;67.78;6.05;;;4.70;5.90;;;;;;5016636;28;20190;-81
2023/04/03 07:48:36;;;;;;;65.57;6.00;;;4.70;7.10;;;;;;5016759;28;20216;-81
2023/04/03 07:51:04;;;;;;;66.47;5.43;;;4.80;5.00;;;;;;5016257;28;20553;-81
2023/04/03 07:53:29;;;;;;;66.90;6.03;;;4.80;2.50;;;;;;5018332;28;20186;-80
2023/04/03 07:55:57;;;;;;;65.43;6.63;;;4.90;3.20;;;;;;5018378;28;20668;-81
2023/04/03 07:58:23;;;;;;;67.93;4.90;;;4.90;1.00;;;;;;5016206;28;20432;-80
2023/04/03 08:00:48;;;;;;;66.80;5.80;;;5.00;1.80;;;;;;5018165;28;20252;-81
2023/04/03 08:03:18;;;;;;;66.60;5.47;;;5.00;1.00;;;;;;5018923;28;20182;-80
2023/04/03 08:05:46;;;;;;;66.28;4.75;;;4.90;1.00;;;;;;5016672;28;20455;-81
2023/04/03 08:08:15;;;;;;;67.05;4.78;;;4.90;1.00;;;;;;5016498;28;20164;-81
2023/04/03 08:10:41;;;;;;;66.95;4.72;;;5.10;1.80;;;;;;5017250;28;20193;-81
2023/04/03 08:13:07;;;;;;;68.53;5.20;;;5.20;1.00;;;;;;5016086;28;20182;-81
2023/04/03 08:15:33;;;;;;;66.45;5.28;;;5.20;1.00;;;;;;5015805;28;20413;-80
2023/04/03 08:18:00;;;;;;;67.57;4.90;;;5.30;1.00;;;;;;5016976;28;20645;-81
2023/04/03 08:20:27;;;;;;;70.97;5.00;;;5.30;1.00;;;;;;5017636;28;20212;-81
2023/04/03 08:22:53;;;;;;;69.10;6.22;;;5.30;1.00;;;;;;5015992;28;20715;-81
2023/04/03 08:25:19;;;;;;;67.45;5.47;;;5.20;1.00;;;;;;5017166;28;20193;-81
2023/04/03 08:27:46;;;;;;;73.77;5.10;;;5.30;1.00;;;;;;5018028;28;20142;-80
2023/04/03 08:30:15;;;;;;;65.00;4.22;;;5.30;1.00;;;;;;5017323;28;20413;-80
2023/04/03 08:32:44;;;;;;;67.13;4.75;;;5.40;1.00;;;;;;5015815;28;20196;-81
2023/04/03 08:35:10;;;;;;;68.85;4.95;;;5.40;1.00;;;;;;5017377;28;20511;-81
2023/04/03 08:37:36;;;;;;;67.13;3.97;;;5.50;1.00;;;;;;5017062;28;20254;-81
2023/04/03 08:40:04;;;;;;;67.00;4.38;;;5.40;1.00;;;;;;5017096;28;20169;-80
2023/04/03 08:42:47;;;;;;;65.13;4.00;;;5.40;1.00;;;;;;5015445;28;20173;-80
2023/04/03 08:45:31;;;;;;;67.03;4.68;;;5.40;1.00;;;;;;5017256;28;20652;-81
2023/04/03 08:48:07;;;;;;;66.50;5.00;;;5.50;1.00;;;;;;5015775;28;20228;-81
2023/04/03 08:51:01;;;;;;;67.85;4.68;;;5.60;1.00;;;;;;5015843;28;20689;-81
2023/04/03 08:53:35;;;;;;;65.97;5.00;;;5.70;1.00;;;;;;5012729;28;20202;-80
2023/04/03 08:56:08;;;;;;;67.07;5.30;;;5.80;1.00;;;;;;5016660;28;20154;-80
2023/04/03 08:58:54;;;;;;;66.82;4.80;;;5.80;1.00;;;;;;5016576;28;20244;-80
2023/04/03 09:01:27;;;;;;;69.30;5.43;;;5.90;1.00;;;;;;5016165;28;20154;-80
2023/04/03 09:03:53;;;;;;;70.47;5.68;;;6.00;1.00;;;;;;5016424;28;20174;-81
2023/04/03 09:06:28;;;;;;;65.00;5.50;;;6.10;1.00;;;;;;5016607;28;20300;-80
2023/04/03 09:09:40;;;;;;;65.18;4.25;;;6.10;1.00;;;;;;5017434;28;20424;-80
2023/04/03 09:12:26;;;;;;;68.18;4.75;;;6.10;1.00;;;;;;4966942;28;20216;-80
2023/04/03 09:15:19;;;;;;;69.10;5.07;;;6.10;1.00;;;;;;5020683;28;20155;-80
2023/04/03 09:17:54;;;;;;;67.15;4.95;;;6.10;1.00;;;;;;5020978;28;20160;-80
2023/04/03 09:20:47;;;;;;;66.68;5.22;;;6.00;1.00;;;;;;5020988;28;20153;-81
2023/04/03 09:23:34;;;;;;;68.60;5.10;;;6.20;1.00;;;;;;5019410;28;20186;-81
2023/04/03 09:26:09;;;;;;;65.72;4.65;;;6.20;1.00;;;;;;5019309;28;20221;-81
2023/04/03 09:28:39;;;;;;;67.50;4.72;;;6.30;1.00;;;;;;5020266;28;20157;-80
2023/04/03 09:31:27;;;;;;;64.78;4.20;;;6.40;1.00;;;;;;5020612;28;20189;-81
2023/04/03 09:34:00;;;;;;;67.75;4.60;;;6.60;1.00;;;;;;5020427;28;20186;-80
2023/04/03 09:36:49;;;;;;;65.97;3.92;;;6.60;1.00;;;;;;5018888;28;20162;-81
2023/04/03 09:39:24;;;;;;;64.65;3.85;;;6.70;1.00;;;;;;5005302;28;20612;-81
2023/04/03 09:42:19;;;;;;;65.38;4.07;;;6.70;1.00;;;;;;5018579;28;20162;-81
2023/04/03 09:44:56;;;;;;;65.90;3.60;;;6.90;1.00;;;;;;5020711;28;20682;-80
2023/04/03 09:47:30;;;;;;;63.67;3.53;;;7.10;1.00;;;;;;5020584;28;20624;-80
2023/04/03 09:50:13;;;;;;;64.60;3.92;;;7.10;1.00;;;;;;5018552;28;20154;-80
2023/04/03 09:52:45;;;;;;;64.32;4.00;;;7.10;1.00;;;;;;5019586;28;20274;-81
2023/04/03 09:55:29;;;;;;;65.72;3.20;;;7.30;1.00;;;;;;5018438;28;20170;-80
2023/04/03 09:58:48;;;;;;;67.57;3.35;;;7.40;1.00;;;;;;5018801;28;20253;-80
2023/04/03 10:01:32;;;;;;;67.55;3.50;;;7.50;1.00;;;;;;5018041;28;20196;-80
2023/04/03 10:04:18;;;;;;;65.40;4.22;;;7.50;1.00;;;;;;5018258;28;20190;-80
2023/04/03 10:06:47;;;;;;;65.35;3.58;;;7.70;1.00;;;;;;5018519;28;20320;-80
2023/04/03 10:09:20;;;;;;;67.22;3.88;;;7.50;1.00;;;;;;5019348;28;20166;-80
2023/04/03 10:12:06;;;;;;;70.35;3.72;;;7.70;1.00;;;;;;5019437;28;20229;-80
2023/04/03 10:14:52;;;;;;;64.10;3.30;;;7.60;1.00;;;;;;5018853;28;20185;-79
2023/04/03 10:17:45;;;;;;;64.40;3.67;;;7.80;1.00;;;;;;4979551;28;20189;-80
2023/04/03 10:20:36;;;;;;;64.90;3.45;;;7.80;1.00;;;;;;5016973;28;20157;-80
2023/04/03 10:23:20;;;;;;;64.50;3.20;;;8.00;1.00;;;;;;5018864;28;20641;-80
2023/04/03 10:26:18;;;;;;;67.57;5.43;;;8.10;1.00;;;;;;5017617;28;20197;-80
2023/04/03 10:29:08;;;;;;;71.35;5.03;;;8.30;1.00;;;;;;5013065;28;20181;-80
2023/04/03 10:31:53;;;;;;;64.75;3.92;;;8.10;1.00;;;;;;5017486;28;20598;-80
2023/04/03 10:34:29;;;;;;;67.28;3.83;;;8.30;1.00;;;;;;5019008;28;20549;-80
2023/04/03 10:37:23;;;;;;;66.05;3.50;;;8.60;1.00;;;;;;5018959;28;20154;-80
2023/04/03 10:40:02;;;;;;;64.95;4.03;;;8.90;1.00;;;;;;5018797;28;20162;-80
2023/04/03 10:43:05;;;;;;;65.30;3.65;;;9.10;1.00;;;;;;5018101;28;20185;-80
2023/04/03 10:45:52;;;;;;;65.28;4.10;;;9.10;1.00;;;;;;5014872;28;20247;-80
2023/04/03 10:48:43;;;;;;;67.80;3.72;;;9.10;1.00;;;;;;5018847;28;20154;-80
2023/04/03 10:51:31;;;;;;;68.03;5.75;;;8.80;1.00;;;;;;5017153;28;20162;-80
2023/04/03 10:54:00;;;;;;;67.10;4.45;;;9.10;1.00;;;;;;5017115;28;20193;-80
2023/04/03 10:56:26;;;;;;;66.28;4.03;;;9.20;1.00;;;;;;5019496;28;20162;-80
2023/04/03 10:59:01;;;;;;;64.90;3.77;;;9.40;1.00;;;;;;5018585;28;20189;-80
2023/04/03 11:01:33;;;;;;;65.82;3.97;;;9.40;1.00;;;;;;5017204;28;20240;-80
2023/04/03 11:04:05;;;;;;;64.28;3.60;;;9.40;1.00;;;;;;5018603;28;20196;-80
2023/04/03 11:06:50;;;;;;;64.60;4.07;;;9.30;1.00;;;;;;5018638;28;20189;-80
2023/04/03 11:09:32;;;;;;;65.93;3.45;;;9.40;1.00;;;;;;5018523;28;20146;-80
2023/04/03 11:12:08;;;;;;;63.72;2.90;;;9.40;1.00;;;;;;5018004;28;20166;-80
2023/04/03 11:14:39;;;;;;;64.70;3.30;;;9.70;1.00;;;;;;5017697;28;20178;-80
2023/04/03 11:17:23;;;;;;;64.78;3.25;;;9.60;1.00;;;;;;5018199;28;20146;-80
2023/04/03 11:20:27;;;;;;;64.68;3.30;;;9.50;1.00;;;;;;5018194;28;20673;-80
2023/04/03 11:23:03;;;;;;;67.10;4.20;;;9.70;1.00;;;;;;5016288;28;20628;-80
2023/04/03 11:26:05;;;;;;;65.22;3.60;;;9.70;1.00;;;;;;5017561;28;20272;-80
2023/04/03 11:28:33;;;;;;;65.68;3.40;;;9.20;1.00;;;;;;4992181;28;20585;-80
2023/04/03 11:31:30;;;;;;;63.78;3.40;;;9.40;1.00;;;;;;5015773;28;20178;-80
2023/04/03 11:34:34;;;;;;;66.10;3.53;;;9.20;1.00;;;;;;5016165;28;20209;-80
2023/04/03 11:37:32;;;;;;;65.18;4.10;;;9.30;1.00;;;;;;4980837;28;20204;-78
2023/04/03 11:40:24;;;;;;;64.72;4.15;;;9.40;1.00;;;;;;5012369;28;20181;-79
2023/04/03 11:42:54;;;;;;;65.20;3.25;;;9.50;1.00;;;;;;5110036;23;20191;-80
2023/04/03 11:45:32;;;;;;;66.35;3.50;;;9.60;1.00;;;;;;5014858;28;20193;-78
2023/04/03 11:48:25;;;;;;;64.57;3.55;;;9.90;1.00;;;;;;5015593;28;20636;-80
2023/04/03 11:50:51;;;;;;;66.75;3.75;;;10.20;1.00;;;;;;5014915;28;20173;-78
2023/04/03 11:53:17;;;;;;;65.47;3.15;;;10.30;1.00;;;;;;5020876;23;20220;-78
2023/04/03 11:55:55;;;;;;;64.70;3.80;;;10.30;1.00;;;;;;5015475;28;20166;-78
2023/04/03 11:58:34;;;;;;;65.28;3.92;;;10.00;1.00;;;;;;5016026;28;20145;-78
2023/04/03 12:01:10;;;;;;;65.28;3.97;;;10.10;1.00;;;;;;5015807;28;20153;-78
2023/04/03 12:03:45;;;;;;;65.13;3.47;;;10.10;1.00;;;;;;5091691;22;20592;-84
2023/04/03 12:06:16;;;;;;;64.50;3.20;;;10.30;1.00;;;;;;5020857;28;20189;-84
2023/04/03 12:08:45;;;;;;;65.68;4.32;;;10.40;1.00;;;;;;5021375;28;20146;-85
2023/04/03 12:13:51;;;;;;;67.40;3.33;;;10.20;1.00;;;;;;5021152;28;20194;-85
2023/04/03 12:16:37;;;;;;;64.35;3.70;;;10.00;1.00;;;;;;5019176;28;20249;-85
2023/04/03 12:19:27;;;;;;;67.35;3.10;;;10.40;1.00;;;;;;5021233;28;20521;-84
2023/04/03 12:21:59;;;;;;;66.88;3.20;;;10.40;1.00;;;;;;5010815;28;20247;-84
2023/04/03 12:24:30;;;;;;;64.97;3.58;;;10.30;1.00;;;;;;5020604;28;20186;-84
2023/04/03 12:26:59;;;;;;;66.55;3.30;;;10.30;1.00;;;;;;5019245;28;20285;-83
2023/04/03 12:29:34;;;;;;;64.88;3.50;;;10.40;1.00;;;;;;5019946;28;20242;-84
2023/04/03 12:32:18;;;;;;;64.78;3.42;;;10.80;1.00;;;;;;5019700;28;20536;-84
2023/04/03 12:35:18;;;;;;;65.45;3.75;;;10.70;1.00;;;;;;5021026;28;20207;-84
2023/04/03 12:38:13;;;;;;;65.47;3.15;;;10.80;1.00;;;;;;5019809;28;20248;-84
2023/04/03 12:40:41;;;;;;;64.03;2.90;;;10.80;1.00;;;;;;5019941;28;20162;-84
2023/04/03 12:43:42;;;;;;;64.50;2.95;;;10.90;1.00;;;;;;5018922;28;20224;-84
2023/04/03 12:46:07;;;;;;;65.57;3.13;;;10.80;1.00;;;;;;5020985;28;20182;-85
2023/04/03 12:48:57;;;;;;;65.30;3.23;;;10.80;1.00;;;;;;5020639;28;20521;-85
2023/04/03 12:51:44;;;;;;;65.80;2.78;;;11.10;1.00;;;;;;5020763;28;20150;-85
2023/04/03 12:54:31;;;;;;;66.38;3.33;;;10.90;1.00;;;;;;5019688;28;20189;-84
2023/04/03 12:57:32;;;;;;;67.22;3.00;;;11.20;1.00;;;;;;5020971;28;20165;-85
2023/04/03 12:59:59;;;;;;;65.05;2.92;;;11.20;1.00;;;;;;4924497;29;20172;-85
2023/04/03 13:02:35;;;;;;;66.07;3.10;;;11.20;1.00;;;;;;5004024;28;20186;-86
2023/04/03 13:05:09;;;;;;;65.25;3.20;;;11.30;1.00;;;;;;5020292;28;20185;-85
2023/04/03 13:07:38;;;;;;;66.45;3.15;;;11.30;1.00;;;;;;5019609;28;20252;-84
2023/04/03 13:10:07;;;;;;;65.38;3.30;;;11.20;1.00;;;;;;5019044;28;20649;-84